world map with REO marked

REO - Airport

This information may not be accurate or current and is not valid for navigation or flight planning. No warranty of fitness for any purpose is made or implied.

flag of Oregonflag of United States

Donate via PayPal

Additional information is available on the NEW Great Circle Mapper

Location
City:  Rome, Oregon, United States
Name:Rome State Airport
ICAO / IATA:KREO / REO
FAA:REO

Details
Type:Airport (Airfield)
Use:Public/Civil
Latitude:42°34'40"N (42.577660)
Longitude:117°53'08"W (-117.885429)
Datum:WGS 1984
Elevation:4053 ft (1235 m)
Runways:1
Longest:6000 × 150 ft (1829 × 45.5 m)

Weather
METAR:KREO  041352Z AUTO 15012KT 03/M04 A2935 RMK AO1 SLP944 T00331044

Related Locations
Nearby:
Farthest:FAME: 11215 mi / 18048 km
Marion Island, Prince Edward Islands, WC, ZA

Find:

   beyond  
but within

Other Information
Maps:
Links:
Sources:

  

Sectional Chart

Flight Planning
at skyvector.com

 


Great Circle Mapper   Great Circle Mapper
Great Circle Mapper FAQ   Great Circle Mapper FAQ
  Karl's Home Page
KLSē   KLSē Home
   GC on Facebook
Airlines of the World   Airlines of the World
Donate via PayPal


Copyright © 2004-2019, Karl L. Swartz. All rights reserved.
All trademarks mentioned herein belong to their respective owners.

Please see credits for attribution and copyright information.

Karl Swartz <karl@kls2.com>
  Powered by FreeBSD
Valid HTML 4.01!
Labeled with ICRA
hCard Microformat
Geo Microformat